Time;durP1;ratioP1;P1;durP2;ratioP2;P2;SDS_P1;SDS_P2;PMS_P1;PMS_P2;Temp;Humidity;BMP_temperature;BMP_pressure;BME280_temperature;BME280_humidity;BME280_pressure;Samples;Min_cycle;Max_cycle;Signal;HPM_P1;HPM_P2
2021/04/16 00:01:16;;;;;;;;;;;;;;;;;;5088943;28;19928;-67
2021/04/16 00:03:43;;;;;;;;;;;;;;;;;;5084391;28;20368;-67
2021/04/16 00:06:09;;;;;;;;;;;;;;;;;;5091341;28;19934;-68
2021/04/16 00:08:37;;;;;;;;;;;;;;;;;;5081725;28;19924;-68
2021/04/16 00:11:04;;;;;;;;;;;;;;;;;;5085545;28;20335;-67
2021/04/16 00:13:30;;;;;;;;;;;;;;;;;;5082084;28;20252;-67
2021/04/16 00:15:57;;;;;;;;;;;;;;;;;;5083666;28;19931;-67
2021/04/16 00:18:23;;;;;;;;;;;;;;;;;;5091475;28;20295;-67
2021/04/16 00:20:50;;;;;;;;;;;;;;;;;;5091942;28;19935;-68
2021/04/16 00:23:16;;;;;;;;;;;;;;;;;;5089290;28;19924;-68
2021/04/16 00:25:43;;;;;;;;;;;;;;;;;;5090187;28;19928;-67
2021/04/16 00:28:09;;;;;;;;;;;;;;;;;;5085468;28;19928;-68
2021/04/16 00:30:36;;;;;;;;;;;;;;;;;;5086742;28;20687;-67
2021/04/16 00:33:02;;;;;;;;;;;;;;;;;;5076091;28;19924;-68
2021/04/16 00:35:29;;;;;;;;;;;;;;;;;;5080609;28;19928;-68
2021/04/16 00:37:55;;;;;;;;;;;;;;;;;;5088404;28;19924;-70
2021/04/16 00:40:21;;;;;;;;;;;;;;;;;;5083066;28;19931;-67
2021/04/16 00:42:48;;;;;;;;;;;;;;;;;;5089197;28;20331;-68
2021/04/16 00:45:14;;;;;;;;;;;;;;;;;;5087743;28;20201;-68
2021/04/16 00:47:41;;;;;;;;;;;;;;;;;;5079496;28;19924;-68
2021/04/16 00:50:07;;;;;;;;;;;;;;;;;;5087438;28;19977;-66
2021/04/16 00:52:34;;;;;;;;;;;;;;;;;;5084577;28;19924;-66
2021/04/16 00:55:00;;;;;;;;;;;;;;;;;;5083341;28;19924;-66
2021/04/16 00:57:27;;;;;;;;;;;;;;;;;;5085322;28;19945;-66
2021/04/16 00:59:53;;;;;;;;;;;;;;;;;;5090646;28;19928;-66
2021/04/16 01:02:20;;;;;;;;;;;;;;;;;;5088464;28;19928;-68
2021/04/16 01:04:46;;;;;;;;;;;;;;;;;;5084305;28;19925;-66
2021/04/16 01:07:13;;;;;;;;;;;;;;;;;;5081188;28;19924;-66
2021/04/16 01:09:39;;;;;;;;;;;;;;;;;;5086620;28;19935;-67
2021/04/16 01:12:06;;;;;;;;;;;;;;;;;;5086427;28;19928;-67
2021/04/16 01:14:32;;;;;;;;;;;;;;;;;;5089879;28;20015;-66
2021/04/16 01:16:59;;;;;;;;;;;;;;;;;;5089599;28;20015;-66
2021/04/16 01:19:25;;;;;;;;;;;;;;;;;;5083740;28;20051;-66
2021/04/16 01:21:52;;;;;;;;;;;;;;;;;;5089060;28;20342;-66
2021/04/16 01:24:18;;;;;;;;;;;;;;;;;;5089820;28;19976;-67
2021/04/16 01:26:44;;;;;;;;;;;;;;;;;;5087376;28;19925;-66
2021/04/16 01:29:11;;;;;;;;;;;;;;;;;;5087207;28;19947;-67
2021/04/16 01:31:47;;;;;;;;;;;;;;;;;;5090052;28;19946;-65
2021/04/16 01:34:13;;;;;;;;;;;;;;;;;;5089271;28;19932;-66
2021/04/16 01:36:40;;;;;;;;;;;;;;;;;;5085407;28;19954;-66
2021/04/16 01:39:06;;;;;;;;;;;;;;;;;;5082239;28;19969;-66
2021/04/16 01:41:33;;;;;;;;;;;;;;;;;;5082260;28;19954;-68
2021/04/16 01:43:59;;;;;;;;;;;;;;;;;;5093845;28;19928;-67
2021/04/16 01:46:26;;;;;;;;;;;;;;;;;;5095135;28;20356;-66
2021/04/16 01:48:52;;;;;;;;;;;;;;;;;;5091900;28;19953;-66
2021/04/16 01:51:19;;;;;;;;;;;;;;;;;;5076526;28;20023;-66
2021/04/16 01:53:45;;;;;;;;;;;;;;;;;;5078610;28;19927;-66
2021/04/16 01:56:12;;;;;;;;;;;;;;;;;;5080993;28;20390;-65
2021/04/16 01:58:38;;;;;;;;;;;;;;;;;;5083238;28;20363;-65
2021/04/16 02:01:05;;;;;;;;;;;;;;;;;;5087162;28;19977;-66
2021/04/16 02:03:31;;;;;;;;;;;;;;;;;;5092793;28;20379;-69
2021/04/16 02:05:58;;;;;;;;;;;;;;;;;;5083022;28;19982;-68
2021/04/16 02:08:25;;;;;;;;;;;;;;;;;;5093774;28;19932;-66
2021/04/16 02:10:51;;;;;;;;;;;;;;;;;;5092028;28;19931;-66
2021/04/16 02:13:18;;;;;;;;;;;;;;;;;;5093460;28;19941;-67
2021/04/16 02:15:44;;;;;;;;;;;;;;;;;;5087440;28;19924;-66
2021/04/16 02:18:11;;;;;;;;;;;;;;;;;;5094213;28;20380;-66
2021/04/16 02:20:37;;;;;;;;;;;;;;;;;;5095687;28;19973;-67
2021/04/16 02:23:04;;;;;;;;;;;;;;;;;;5094220;28;20343;-67
2021/04/16 02:25:30;;;;;;;;;;;;;;;;;;5083054;28;19924;-66
2021/04/16 02:27:57;;;;;;;;;;;;;;;;;;5093405;28;19931;-66
2021/04/16 02:30:23;;;;;;;;;;;;;;;;;;5094212;28;20295;-66
2021/04/16 02:32:50;;;;;;;;;;;;;;;;;;5089897;28;19939;-67
2021/04/16 02:35:16;;;;;;;;;;;;;;;;;;5081495;28;19924;-66
2021/04/16 02:37:43;;;;;;;;;;;;;;;;;;5092221;28;19924;-66
2021/04/16 02:40:09;;;;;;;;;;;;;;;;;;5094705;28;19928;-66
2021/04/16 02:42:35;;;;;;;;;;;;;;;;;;5085164;28;20377;-66
2021/04/16 02:45:02;;;;;;;;;;;;;;;;;;5086469;28;19931;-66
2021/04/16 02:47:28;;;;;;;;;;;;;;;;;;5089829;28;19928;-66
2021/04/16 02:49:55;;;;;;;;;;;;;;;;;;5089420;28;19955;-66
2021/04/16 02:52:21;;;;;;;;;;;;;;;;;;5089862;28;20392;-66
2021/04/16 02:54:48;;;;;;;;;;;;;;;;;;5089440;28;19925;-67
2021/04/16 02:57:14;;;;;;;;;;;;;;;;;;5092040;28;19925;-67
2021/04/16 02:59:41;;;;;;;;;;;;;;;;;;5079419;28;19925;-68
2021/04/16 03:02:07;;;;;;;;;;;;;;;;;;5092869;28;19930;-66
2021/04/16 03:04:35;;;;;;;;;;;;;;;;;;5083619;28;20411;-66
2021/04/16 03:07:02;;;;;;;;;;;;;;;;;;5091208;28;19968;-67
2021/04/16 03:09:28;;;;;;;;;;;;;;;;;;5087436;28;19925;-67
2021/04/16 03:11:55;;;;;;;;;;;;;;;;;;5087000;28;20004;-66
2021/04/16 03:14:21;;;;;;;;;;;;;;;;;;5091374;28;19924;-66
2021/04/16 03:16:49;;;;;;;;;;;;;;;;;;5088839;28;20748;-66
2021/04/16 03:19:15;;;;;;;;;;;;;;;;;;5084622;28;19968;-67
2021/04/16 03:21:42;;;;;;;;;;;;;;;;;;5087033;28;19924;-67
2021/04/16 03:24:08;;;;;;;;;;;;;;;;;;5076605;28;19934;-66
2021/04/16 03:26:35;;;;;;;;;;;;;;;;;;5091575;28;19925;-66
2021/04/16 03:29:01;;;;;;;;;;;;;;;;;;5093321;28;19931;-67
2021/04/16 03:31:28;;;;;;;;;;;;;;;;;;5087243;28;19924;-66
2021/04/16 03:33:54;;;;;;;;;;;;;;;;;;5089281;28;19924;-67
2021/04/16 03:36:21;;;;;;;;;;;;;;;;;;5076313;28;19954;-67
2021/04/16 03:38:47;;;;;;;;;;;;;;;;;;5091716;28;19930;-66
2021/04/16 03:41:14;;;;;;;;;;;;;;;;;;5093650;28;20410;-66
2021/04/16 03:43:40;;;;;;;;;;;;;;;;;;5089711;28;19931;-70
2021/04/16 03:46:07;;;;;;;;;;;;;;;;;;5093050;28;19936;-68
2021/04/16 03:48:33;;;;;;;;;;;;;;;;;;5082348;28;20285;-67
2021/04/16 03:51:00;;;;;;;;;;;;;;;;;;5080625;28;19924;-66
2021/04/16 03:53:26;;;;;;;;;;;;;;;;;;5091020;28;19974;-66
2021/04/16 03:55:53;;;;;;;;;;;;;;;;;;5085199;28;20040;-66
2021/04/16 03:58:19;;;;;;;;;;;;;;;;;;5091328;28;19944;-67
2021/04/16 04:00:46;;;;;;;;;;;;;;;;;;5089842;28;19924;-66
2021/04/16 04:03:12;;;;;;;;;;;;;;;;;;5084918;28;19932;-67
2021/04/16 04:05:38;;;;;;;;;;;;;;;;;;5085135;28;19934;-66
2021/04/16 04:08:05;;;;;;;;;;;;;;;;;;5085410;28;20315;-66
2021/04/16 04:10:36;;;;;;;;;;;;;;;;;;5093885;28;19934;-68
2021/04/16 04:13:02;;;;;;;;;;;;;;;;;;5088189;28;20011;-67
2021/04/16 04:15:29;;;;;;;;;;;;;;;;;;5088596;28;19928;-66
2021/04/16 04:17:55;;;;;;;;;;;;;;;;;;5084891;28;19947;-66
2021/04/16 04:20:22;;;;;;;;;;;;;;;;;;5087849;28;19924;-66
2021/04/16 04:22:48;;;;;;;;;;;;;;;;;;5090793;28;19928;-66
2021/04/16 04:25:15;;;;;;;;;;;;;;;;;;5084388;28;20380;-66
2021/04/16 04:27:41;;;;;;;;;;;;;;;;;;5089190;28;19986;-66
2021/04/16 04:30:08;;;;;;;;;;;;;;;;;;5084562;28;20201;-66
2021/04/16 04:32:34;;;;;;;;;;;;;;;;;;5089784;28;19946;-66
2021/04/16 04:35:01;;;;;;;;;;;;;;;;;;5081690;28;19930;-66
2021/04/16 04:37:27;;;;;;;;;;;;;;;;;;5087980;28;19946;-66
2021/04/16 04:39:54;;;;;;;;;;;;;;;;;;5087258;28;19924;-66
2021/04/16 04:42:20;;;;;;;;;;;;;;;;;;5090674;28;19931;-66
2021/04/16 04:44:47;;;;;;;;;;;;;;;;;;5081125;28;19924;-66
2021/04/16 04:47:13;;;;;;;;;;;;;;;;;;5086208;28;19931;-66
2021/04/16 04:49:40;;;;;;;;;;;;;;;;;;5088216;28;20399;-66
2021/04/16 04:52:06;;;;;;;;;;;;;;;;;;5087596;28;19930;-67
2021/04/16 04:54:32;;;;;;;;;;;;;;;;;;5084316;28;20178;-67
2021/04/16 04:56:59;;;;;;;;;;;;;;;;;;5077678;28;20303;-66
2021/04/16 04:59:25;;;;;;;;;;;;;;;;;;5087073;28;19931;-70
2021/04/16 05:01:52;;;;;;;;;;;;;;;;;;5091282;28;19924;-67
2021/04/16 05:04:20;;;;;;;;;;;;;;;;;;5081380;28;19929;-66
2021/04/16 05:06:47;;;;;;;;;;;;;;;;;;5085050;28;19938;-67
2021/04/16 05:09:13;;;;;;;;;;;;;;;;;;5082664;28;20397;-67
2021/04/16 05:11:40;;;;;;;;;;;;;;;;;;5085444;28;20021;-67
2021/04/16 05:14:06;;;;;;;;;;;;;;;;;;5089571;28;20285;-67
2021/04/16 05:16:33;;;;;;;;;;;;;;;;;;5086298;28;19924;-67
2021/04/16 05:19:01;;;;;;;;;;;;;;;;;;5089311;28;20433;-67
2021/04/16 05:21:28;;;;;;;;;;;;;;;;;;5080200;28;19925;-65
2021/04/16 05:23:55;;;;;;;;;;;;;;;;;;5083439;28;20404;-65
2021/04/16 05:26:21;;;;;;;;;;;;;;;;;;5087330;28;19928;-68
2021/04/16 05:28:47;;;;;;;;;;;;;;;;;;5079565;28;19924;-65
2021/04/16 05:31:14;;;;;;;;;;;;;;;;;;5079197;28;19924;-65
2021/04/16 05:33:40;;;;;;;;;;;;;;;;;;5080333;28;19931;-67
2021/04/16 05:36:07;;;;;;;;;;;;;;;;;;5082120;28;19928;-67
2021/04/16 05:38:33;;;;;;;;;;;;;;;;;;5081787;28;19930;-67
2021/04/16 05:41:00;;;;;;;;;;;;;;;;;;5081484;28;19931;-67
2021/04/16 05:43:26;;;;;;;;;;;;;;;;;;5087530;28;19924;-67
2021/04/16 05:45:53;;;;;;;;;;;;;;;;;;5088180;28;19931;-67
2021/04/16 05:48:19;;;;;;;;;;;;;;;;;;5089444;28;19953;-67
2021/04/16 05:50:46;;;;;;;;;;;;;;;;;;5086394;28;19931;-65
2021/04/16 05:53:12;;;;;;;;;;;;;;;;;;5088584;28;19982;-65
2021/04/16 05:55:41;;;;;;;;;;;;;;;;;;5087308;28;19938;-66
2021/04/16 05:58:10;;;;;;;;;;;;;;;;;;5086390;28;19924;-67
2021/04/16 06:00:37;;;;;;;;;;;;;;;;;;5080141;28;20019;-67
2021/04/16 06:03:03;;;;;;;;;;;;;;;;;;5077490;28;20000;-67
2021/04/16 06:05:30;;;;;;;;;;;;;;;;;;5082420;28;19931;-65
2021/04/16 06:07:56;;;;;;;;;;;;;;;;;;5081090;28;19971;-67
2021/04/16 06:10:23;;;;;;;;;;;;;;;;;;5085056;28;19925;-67
2021/04/16 06:12:49;;;;;;;;;;;;;;;;;;5079835;28;19924;-67
2021/04/16 06:15:16;;;;;;;;;;;;;;;;;;5077379;28;19929;-67
2021/04/16 06:17:42;;;;;;;;;;;;;;;;;;5071009;28;19932;-65
2021/04/16 06:20:09;;;;;;;;;;;;;;;;;;5078578;28;20391;-65
2021/04/16 06:22:35;;;;;;;;;;;;;;;;;;5082465;28;20098;-67
2021/04/16 06:25:02;;;;;;;;;;;;;;;;;;5086119;28;19970;-67
2021/04/16 06:27:28;;;;;;;;;;;;;;;;;;5085662;28;19934;-66
2021/04/16 06:29:55;;;;;;;;;;;;;;;;;;5077360;28;20293;-67
2021/04/16 06:32:22;;;;;;;;;;;;;;;;;;5088458;28;19924;-67
2021/04/16 06:34:48;;;;;;;;;;;;;;;;;;5084525;28;19935;-66
2021/04/16 06:37:15;;;;;;;;;;;;;;;;;;5088813;28;19924;-67
2021/04/16 06:39:41;;;;;;;;;;;;;;;;;;5083838;28;19924;-67
2021/04/16 06:42:08;;;;;;;;;;;;;;;;;;5090276;28;19938;-67
2021/04/16 06:44:34;;;;;;;;;;;;;;;;;;5083961;28;20323;-67
2021/04/16 06:47:01;;;;;;;;;;;;;;;;;;5090009;28;19948;-66
2021/04/16 06:49:28;;;;;;;;;;;;;;;;;;5079865;28;19924;-67
2021/04/16 06:51:54;;;;;;;;;;;;;;;;;;5089314;28;19924;-67
2021/04/16 06:54:21;;;;;;;;;;;;;;;;;;5077653;28;19932;-67
2021/04/16 06:56:47;;;;;;;;;;;;;;;;;;5087349;28;19928;-67
2021/04/16 06:59:15;;;;;;;;;;;;;;;;;;5082576;28;19924;-67
2021/04/16 07:01:41;;;;;;;;;;;;;;;;;;5076228;28;20310;-67
2021/04/16 07:04:08;;;;;;;;;;;;;;;;;;5087394;28;20344;-67
2021/04/16 07:06:34;;;;;;;;;;;;;;;;;;5082270;28;19930;-67
2021/04/16 07:09:01;;;;;;;;;;;;;;;;;;5081782;28;20012;-67
2021/04/16 07:11:29;;;;;;;;;;;;;;;;;;5082814;28;20019;-66
2021/04/16 07:13:55;;;;;;;;;;;;;;;;;;5081204;28;19931;-67
2021/04/16 07:16:22;;;;;;;;;;;;;;;;;;5086849;28;19928;-67
2021/04/16 07:18:48;;;;;;;;;;;;;;;;;;5081692;28;19935;-67
2021/04/16 07:21:15;;;;;;;;;;;;;;;;;;5082952;28;19924;-67
2021/04/16 07:23:41;;;;;;;;;;;;;;;;;;5080624;28;19985;-67
2021/04/16 07:26:08;;;;;;;;;;;;;;;;;;5079146;28;19932;-66
2021/04/16 07:28:34;;;;;;;;;;;;;;;;;;5080198;28;20015;-67
2021/04/16 07:31:01;;;;;;;;;;;;;;;;;;5084407;28;19924;-67
2021/04/16 07:33:27;;;;;;;;;;;;;;;;;;5084211;28;19924;-67
2021/04/16 07:35:54;;;;;;;;;;;;;;;;;;5082431;28;20222;-67
2021/04/16 07:38:20;;;;;;;;;;;;;;;;;;5076770;28;20380;-66
2021/04/16 07:40:47;;;;;;;;;;;;;;;;;;5080927;28;19978;-67
2021/04/16 07:43:13;;;;;;;;;;;;;;;;;;5083717;28;19977;-68
2021/04/16 07:45:40;;;;;;;;;;;;;;;;;;5084575;28;19931;-67
2021/04/16 07:48:06;;;;;;;;;;;;;;;;;;5080481;28;20226;-67
2021/04/16 07:50:33;;;;;;;;;;;;;;;;;;5080919;28;19930;-67
2021/04/16 07:53:00;;;;;;;;;;;;;;;;;;5083845;28;19924;-67
2021/04/16 07:55:26;;;;;;;;;;;;;;;;;;5082080;28;19970;-67
2021/04/16 07:57:53;;;;;;;;;;;;;;;;;;5080120;28;19954;-67
2021/04/16 08:00:19;;;;;;;;;;;;;;;;;;5078158;28;20020;-67
2021/04/16 08:02:46;;;;;;;;;;;;;;;;;;5083017;28;19924;-67
2021/04/16 08:05:12;;;;;;;;;;;;;;;;;;5083989;28;20443;-67
2021/04/16 08:07:39;;;;;;;;;;;;;;;;;;5082641;28;19935;-67
2021/04/16 08:10:05;;;;;;;;;;;;;;;;;;5081296;28;19932;-67
2021/04/16 08:12:31;;;;;;;;;;;;;;;;;;5083716;28;19924;-66
2021/04/16 08:14:58;;;;;;;;;;;;;;;;;;5080460;28;20383;-69
2021/04/16 08:17:24;;;;;;;;;;;;;;;;;;5084105;28;20012;-67
2021/04/16 08:19:51;;;;;;;;;;;;;;;;;;5078563;28;20019;-68
2021/04/16 08:22:17;;;;;;;;;;;;;;;;;;5081577;28;19928;-69
2021/04/16 08:24:44;;;;;;;;;;;;;;;;;;5082698;28;19924;-67
2021/04/16 08:27:11;;;;;;;;;;;;;;;;;;5081332;28;20004;-72
2021/04/16 08:29:37;;;;;;;;;;;;;;;;;;5079696;28;20568;-72
2021/04/16 08:32:04;;;;;;;;;;;;;;;;;;5084911;28;20003;-71
2021/04/16 08:34:30;;;;;;;;;;;;;;;;;;5076999;28;20023;-71
2021/04/16 08:36:57;;;;;;;;;;;;;;;;;;5082983;28;19972;-71
2021/04/16 08:39:23;;;;;;;;;;;;;;;;;;5078189;28;19928;-71
2021/04/16 08:41:50;;;;;;;;;;;;;;;;;;5082898;28;19931;-72
2021/04/16 08:44:16;;;;;;;;;;;;;;;;;;5082857;28;19931;-71
2021/04/16 08:46:43;;;;;;;;;;;;;;;;;;5084705;28;19931;-72
2021/04/16 08:49:11;;;;;;;;;;;;;;;;;;5081070;28;20496;-71
2021/04/16 08:51:37;;;;;;;;;;;;;;;;;;5080405;28;20572;-72
2021/04/16 08:54:03;;;;;;;;;;;;;;;;;;5079703;28;19928;-72
2021/04/16 08:56:30;;;;;;;;;;;;;;;;;;5081497;28;19928;-72
2021/04/16 08:58:56;;;;;;;;;;;;;;;;;;5077353;28;19931;-72
2021/04/16 09:01:23;;;;;;;;;;;;;;;;;;5081162;28;20007;-72
2021/04/16 09:03:49;;;;;;;;;;;;;;;;;;5080299;28;20038;-71
2021/04/16 09:06:16;;;;;;;;;;;;;;;;;;5080933;28;19979;-71
2021/04/16 09:08:45;;;;;;;;;;;;;;;;;;5079681;28;20038;-71
2021/04/16 09:11:11;;;;;;;;;;;;;;;;;;5083529;28;19932;-71
2021/04/16 09:13:37;;;;;;;;;;;;;;;;;;5082939;28;20380;-71
2021/04/16 09:16:04;;;;;;;;;;;;;;;;;;5082059;28;20014;-72
2021/04/16 09:18:31;;;;;;;;;;;;;;;;;;5076371;28;20277;-71
2021/04/16 09:20:57;;;;;;;;;;;;;;;;;;5080939;28;19924;-71
2021/04/16 09:23:24;;;;;;;;;;;;;;;;;;5079397;28;20197;-71
2021/04/16 09:25:50;;;;;;;;;;;;;;;;;;5078564;28;19931;-70
2021/04/16 09:28:17;;;;;;;;;;;;;;;;;;5082545;28;19924;-70
2021/04/16 09:30:44;;;;;;;;;;;;;;;;;;5078447;28;20281;-71
2021/04/16 09:33:10;;;;;;;;;;;;;;;;;;5083691;28;20419;-71
2021/04/16 09:35:37;;;;;;;;;;;;;;;;;;5078481;28;20022;-71
2021/04/16 09:38:03;;;;;;;;;;;;;;;;;;5075230;28;19986;-71
2021/04/16 09:40:30;;;;;;;;;;;;;;;;;;5076689;28;20311;-71
2021/04/16 09:42:56;;;;;;;;;;;;;;;;;;5082522;28;20027;-71
2021/04/16 09:45:23;;;;;;;;;;;;;;;;;;5080440;28;19924;-71
2021/04/16 09:47:50;;;;;;;;;;;;;;;;;;5081515;28;20406;-71
2021/04/16 09:50:16;;;;;;;;;;;;;;;;;;5081601;28;19963;-71
2021/04/16 09:52:43;;;;;;;;;;;;;;;;;;5080252;28;19975;-71
2021/04/16 09:55:09;;;;;;;;;;;;;;;;;;5080343;28;19924;-71
2021/04/16 09:57:36;;;;;;;;;;;;;;;;;;5083356;28;20011;-71
2021/04/16 10:00:02;;;;;;;;;;;;;;;;;;5085284;28;19925;-71
2021/04/16 10:02:29;;;;;;;;;;;;;;;;;;5083671;28;19939;-70
2021/04/16 10:04:55;;;;;;;;;;;;;;;;;;5087078;28;20372;-71
2021/04/16 10:07:22;;;;;;;;;;;;;;;;;;5085641;28;19928;-71
2021/04/16 10:09:48;;;;;;;;;;;;;;;;;;5082643;28;19936;-71
2021/04/16 10:12:16;;;;;;;;;;;;;;;;;;5084422;28;19932;-71
2021/04/16 10:14:42;;;;;;;;;;;;;;;;;;5088526;28;19932;-71
2021/04/16 10:17:09;;;;;;;;;;;;;;;;;;5080572;28;20401;-69
2021/04/16 10:19:35;;;;;;;;;;;;;;;;;;5085772;28;19987;-70
2021/04/16 10:22:02;;;;;;;;;;;;;;;;;;5087509;28;19935;-70
2021/04/16 12:39:52;;;;;;;;;;;;;;;;;;5075868;28;19966;-68
2021/04/16 12:42:19;;;;;;;;;;;;;;;;;;5083536;28;19924;-69
2021/04/16 12:44:47;;;;;;;;;;;;;;;;;;5084840;28;20330;-68
2021/04/16 12:47:14;;;;;;;;;;;;;;;;;;5077974;28;20443;-68
2021/04/16 12:49:40;;;;;;;;;;;;;;;;;;5077355;28;19931;-68
2021/04/16 12:52:06;;;;;;;;;;;;;;;;;;5083585;28;20395;-68
2021/04/16 12:54:33;;;;;;;;;;;;;;;;;;5080379;28;20438;-68
2021/04/16 12:56:59;;;;;;;;;;;;;;;;;;5079476;28;19925;-69
2021/04/16 12:59:26;;;;;;;;;;;;;;;;;;5076278;28;19932;-69
2021/04/16 13:01:52;;;;;;;;;;;;;;;;;;5082249;28;20555;-70
2021/04/16 13:04:19;;;;;;;;;;;;;;;;;;5078620;28;20031;-70
2021/04/16 13:06:45;;;;;;;;;;;;;;;;;;5080784;28;19975;-68
2021/04/16 13:09:12;;;;;;;;;;;;;;;;;;5079484;28;19983;-69
2021/04/16 13:11:38;;;;;;;;;;;;;;;;;;5085016;28;19927;-69
2021/04/16 13:14:05;;;;;;;;;;;;;;;;;;5083362;28;20011;-71
2021/04/16 13:16:31;;;;;;;;;;;;;;;;;;5087893;28;20417;-69
2021/04/16 13:18:58;;;;;;;;;;;;;;;;;;5077867;28;19935;-69
2021/04/16 13:21:24;;;;;;;;;;;;;;;;;;5090009;28;20396;-69
2021/04/16 13:23:51;;;;;;;;;;;;;;;;;;5085612;28;19994;-70
2021/04/16 13:26:17;;;;;;;;;;;;;;;;;;5085595;28;20019;-68
2021/04/16 13:28:45;;;;;;;;;;;;;;;;;;5078155;28;19967;-68
2021/04/16 13:31:11;;;;;;;;;;;;;;;;;;5087643;28;19978;-68
2021/04/16 13:33:38;;;;;;;;;;;;;;;;;;5090420;28;20318;-69
2021/04/16 13:36:04;;;;;;;;;;;;;;;;;;5090697;28;19930;-69
2021/04/16 13:38:31;;;;;;;;;;;;;;;;;;5081625;28;19930;-69
2021/04/16 13:40:59;;;;;;;;;;;;;;;;;;5080446;28;19935;-69
2021/04/16 13:43:25;;;;;;;;;;;;;;;;;;5076778;28;19950;-69
2021/04/16 13:45:54;;;;;;;;;;;;;;;;;;5093686;28;19932;-69
2021/04/16 13:48:20;;;;;;;;;;;;;;;;;;5089079;28;19934;-69
2021/04/16 13:50:47;;;;;;;;;;;;;;;;;;5088718;28;20019;-69
2021/04/16 13:53:13;;;;;;;;;;;;;;;;;;5093760;28;19924;-68
2021/04/16 13:55:40;;;;;;;;;;;;;;;;;;5087139;28;19939;-68
2021/04/16 13:58:09;;;;;;;;;;;;;;;;;;5091145;28;19924;-68
2021/04/16 14:00:36;;;;;;;;;;;;;;;;;;5084936;28;20387;-69
2021/04/16 14:03:02;;;;;;;;;;;;;;;;;;5086839;28;20408;-69
2021/04/16 14:05:29;;;;;;;;;;;;;;;;;;5068007;28;19924;-69
2021/04/16 14:07:55;;;;;;;;;;;;;;;;;;5086358;28;20383;-69
2021/04/16 14:10:22;;;;;;;;;;;;;;;;;;5085141;28;19931;-69
2021/04/16 14:12:48;;;;;;;;;;;;;;;;;;5090382;28;19997;-70
2021/04/16 14:15:15;;;;;;;;;;;;;;;;;;5089146;28;20010;-68
2021/04/16 14:17:41;;;;;;;;;;;;;;;;;;5088655;28;19967;-69
2021/04/16 14:20:10;;;;;;;;;;;;;;;;;;5084073;28;19982;-68
2021/04/16 14:22:37;;;;;;;;;;;;;;;;;;5088678;28;19932;-69
2021/04/16 14:25:03;;;;;;;;;;;;;;;;;;5077330;28;20010;-68
2021/04/16 14:27:30;;;;;;;;;;;;;;;;;;5081149;28;19931;-68
2021/04/16 14:29:56;;;;;;;;;;;;;;;;;;5078413;28;20026;-69
2021/04/16 14:32:24;;;;;;;;;;;;;;;;;;5086598;28;20304;-68
2021/04/16 14:34:51;;;;;;;;;;;;;;;;;;5083976;28;19934;-69
2021/04/16 14:37:18;;;;;;;;;;;;;;;;;;5082998;28;19932;-68
2021/04/16 14:39:45;;;;;;;;;;;;;;;;;;5082345;28;19963;-70
2021/04/16 14:42:11;;;;;;;;;;;;;;;;;;5081962;28;20355;-69
2021/04/16 14:44:41;;;;;;;;;;;;;;;;;;5080800;28;20380;-69
2021/04/16 14:47:08;;;;;;;;;;;;;;;;;;5085364;28;19979;-69
2021/04/16 14:49:34;;;;;;;;;;;;;;;;;;5081618;28;19939;-69
2021/04/16 14:52:00;;;;;;;;;;;;;;;;;;5085296;28;19924;-70
2021/04/16 14:54:27;;;;;;;;;;;;;;;;;;5084905;28;20467;-70
2021/04/16 14:56:53;;;;;;;;;;;;;;;;;;5087592;28;19931;-69
2021/04/16 14:59:20;;;;;;;;;;;;;;;;;;5083730;28;19931;-69
2021/04/16 15:01:49;;;;;;;;;;;;;;;;;;5085525;28;19928;-69
2021/04/16 15:04:15;;;;;;;;;;;;;;;;;;5080089;28;19955;-69
2021/04/16 15:06:42;;;;;;;;;;;;;;;;;;5085312;28;19924;-71
2021/04/16 15:09:09;;;;;;;;;;;;;;;;;;5078419;28;19925;-70
2021/04/16 15:11:35;;;;;;;;;;;;;;;;;;5084237;28;19936;-69
2021/04/16 15:14:02;;;;;;;;;;;;;;;;;;5083948;28;19924;-70
2021/04/16 15:16:28;;;;;;;;;;;;;;;;;;5080780;28;19970;-70
2021/04/16 15:18:55;;;;;;;;;;;;;;;;;;5077263;28;19924;-69
2021/04/16 15:21:21;;;;;;;;;;;;;;;;;;5081791;28;20350;-70
2021/04/16 15:23:48;;;;;;;;;;;;;;;;;;5081999;28;19928;-70
2021/04/16 15:26:16;;;;;;;;;;;;;;;;;;5081767;28;19971;-70
2021/04/16 15:28:42;;;;;;;;;;;;;;;;;;5080222;28;19925;-70
2021/04/16 15:31:09;;;;;;;;;;;;;;;;;;5077967;28;20000;-69
2021/04/16 15:47:05;;;;;;;;;;;;;;;;;;5085673;28;19965;-69
2021/04/16 15:49:32;;;;;;;;;;;;;;;;;;5086734;28;19928;-67
2021/04/16 15:51:58;;;;;;;;;;;;;;;;;;5085947;28;19953;-66
2021/04/16 15:54:25;;;;;;;;;;;;;;;;;;5083012;28;19928;-67
2021/04/16 15:56:51;;;;;;;;;;;;;;;;;;5082103;28;20015;-70
2021/04/16 15:59:18;;;;;;;;;;;;;;;;;;5079583;28;20062;-69
2021/04/16 16:01:44;;;;;;;;;;;;;;;;;;5083775;28;19934;-70
2021/04/16 16:04:12;;;;;;;;;;;;;;;;;;5078636;28;20384;-70
2021/04/16 16:06:38;;;;;;;;;;;;;;;;;;5081382;28;19924;-71
2021/04/16 16:09:05;;;;;;;;;;;;;;;;;;5081648;28;19925;-70
2021/04/16 16:11:34;;;;;;;;;;;;;;;;;;5086097;28;20019;-70
2021/04/16 16:14:01;;;;;;;;;;;;;;;;;;5067166;28;19931;-72
2021/04/16 16:16:27;;;;;;;;;;;;;;;;;;5083942;28;19932;-70
2021/04/16 16:18:54;;;;;;;;;;;;;;;;;;5081070;28;20299;-69
2021/04/16 16:21:21;;;;;;;;;;;;;;;;;;5085082;28;19924;-70
2021/04/16 16:23:47;;;;;;;;;;;;;;;;;;5080175;28;20011;-69
2021/04/16 16:26:14;;;;;;;;;;;;;;;;;;5081827;28;20053;-69
2021/04/16 16:28:40;;;;;;;;;;;;;;;;;;5080807;28;20404;-69
2021/04/16 16:31:07;;;;;;;;;;;;;;;;;;5064883;28;20200;-69
2021/04/16 16:33:33;;;;;;;;;;;;;;;;;;5081023;28;20008;-69
2021/04/16 16:36:00;;;;;;;;;;;;;;;;;;5081194;28;20003;-68
2021/04/16 16:38:27;;;;;;;;;;;;;;;;;;5079610;28;19939;-68
2021/04/16 16:40:53;;;;;;;;;;;;;;;;;;5081737;28;19930;-69
2021/04/16 16:43:20;;;;;;;;;;;;;;;;;;5077354;28;20408;-69
2021/04/16 16:45:46;;;;;;;;;;;;;;;;;;5079566;28;19929;-69
2021/04/16 16:48:13;;;;;;;;;;;;;;;;;;5081864;28;20050;-69
2021/04/16 16:50:39;;;;;;;;;;;;;;;;;;5082128;28;19963;-68
2021/04/16 16:53:06;;;;;;;;;;;;;;;;;;5085078;28;19928;-65
2021/04/16 16:55:32;;;;;;;;;;;;;;;;;;5088337;28;20422;-68
2021/04/16 16:57:59;;;;;;;;;;;;;;;;;;5088946;28;20418;-68
2021/04/16 17:00:25;;;;;;;;;;;;;;;;;;5079227;28;19930;-67
2021/04/16 17:02:52;;;;;;;;;;;;;;;;;;5083765;28;19978;-68
2021/04/16 17:05:18;;;;;;;;;;;;;;;;;;5083530;28;20174;-68
2021/04/16 17:07:45;;;;;;;;;;;;;;;;;;5083181;28;20344;-68
2021/04/16 17:10:11;;;;;;;;;;;;;;;;;;5082022;28;19982;-68
2021/04/16 17:12:38;;;;;;;;;;;;;;;;;;5082516;28;19932;-68
2021/04/16 17:15:05;;;;;;;;;;;;;;;;;;5081280;28;19928;-68
2021/04/16 17:17:34;;;;;;;;;;;;;;;;;;5084481;28;20305;-67
2021/04/16 17:20:00;;;;;;;;;;;;;;;;;;5082063;28;19925;-68
2021/04/16 17:22:27;;;;;;;;;;;;;;;;;;5083307;28;20019;-67
2021/04/16 17:24:53;;;;;;;;;;;;;;;;;;5086133;28;19924;-68
2021/04/16 17:27:20;;;;;;;;;;;;;;;;;;5081766;28;20335;-67
2021/04/16 17:29:47;;;;;;;;;;;;;;;;;;5084824;28;20015;-68
2021/04/16 17:32:15;;;;;;;;;;;;;;;;;;5082179;28;20418;-67
2021/04/16 17:34:41;;;;;;;;;;;;;;;;;;5083582;28;19925;-67
2021/04/16 17:37:08;;;;;;;;;;;;;;;;;;5079229;28;19935;-67
2021/04/16 17:39:35;;;;;;;;;;;;;;;;;;5080313;28;19924;-68
2021/04/16 17:42:01;;;;;;;;;;;;;;;;;;5081425;28;19936;-68
2021/04/16 17:44:28;;;;;;;;;;;;;;;;;;5089391;28;19974;-69
2021/04/16 17:46:54;;;;;;;;;;;;;;;;;;5103878;28;19981;-68
2021/04/16 17:49:21;;;;;;;;;;;;;;;;;;5084188;28;19935;-67
2021/04/16 17:51:48;;;;;;;;;;;;;;;;;;5077204;28;19930;-66
2021/04/16 17:54:14;;;;;;;;;;;;;;;;;;5081620;28;19931;-68
2021/04/16 17:56:41;;;;;;;;;;;;;;;;;;5084563;28;19924;-67
2021/04/16 17:59:08;;;;;;;;;;;;;;;;;;5082837;28;20027;-67
2021/04/16 18:01:34;;;;;;;;;;;;;;;;;;5081780;28;19932;-69
2021/04/16 18:04:01;;;;;;;;;;;;;;;;;;5061104;28;19928;-70
2021/04/16 18:06:27;;;;;;;;;;;;;;;;;;5081226;28;19968;-68
2021/04/16 18:08:54;;;;;;;;;;;;;;;;;;5084097;28;19943;-68
2021/04/16 18:11:20;;;;;;;;;;;;;;;;;;5084132;28;19931;-68
2021/04/16 18:13:47;;;;;;;;;;;;;;;;;;5084214;28;20382;-68
2021/04/16 18:16:14;;;;;;;;;;;;;;;;;;5082052;28;19947;-68
2021/04/16 18:18:41;;;;;;;;;;;;;;;;;;5082328;28;19931;-68
2021/04/16 18:21:08;;;;;;;;;;;;;;;;;;5085393;28;19977;-69
2021/04/16 18:23:35;;;;;;;;;;;;;;;;;;5087579;28;20019;-68
2021/04/16 18:26:01;;;;;;;;;;;;;;;;;;5086184;28;19934;-68
2021/04/16 18:28:28;;;;;;;;;;;;;;;;;;5082876;28;20032;-69
2021/04/16 18:30:54;;;;;;;;;;;;;;;;;;5087040;28;19924;-69
2021/04/16 18:33:25;;;;;;;;;;;;;;;;;;5099307;28;19991;-67
2021/04/16 18:35:52;;;;;;;;;;;;;;;;;;5092316;28;20014;-66
2021/04/16 18:38:19;;;;;;;;;;;;;;;;;;5087630;28;19930;-68
2021/04/16 18:40:45;;;;;;;;;;;;;;;;;;5087314;28;20392;-69
2021/04/16 18:43:12;;;;;;;;;;;;;;;;;;5084458;28;19997;-69
2021/04/16 18:45:39;;;;;;;;;;;;;;;;;;5082663;28;19924;-70
2021/04/16 18:48:05;;;;;;;;;;;;;;;;;;5084828;28;19925;-69
2021/04/16 18:50:32;;;;;;;;;;;;;;;;;;5084146;28;20014;-70
2021/04/16 18:52:58;;;;;;;;;;;;;;;;;;5083105;28;19934;-70
2021/04/16 18:55:27;;;;;;;;;;;;;;;;;;5083301;28;19931;-70
2021/04/16 18:57:54;;;;;;;;;;;;;;;;;;5084602;28;19931;-70
2021/04/16 19:00:28;;;;;;;;;;;;;;;;;;5080956;28;19954;-70
2021/04/16 19:02:54;;;;;;;;;;;;;;;;;;5067259;28;19924;-70
2021/04/16 19:05:23;;;;;;;;;;;;;;;;;;5082497;28;19959;-70
2021/04/16 19:07:50;;;;;;;;;;;;;;;;;;5084723;28;19924;-70
2021/04/16 19:10:16;;;;;;;;;;;;;;;;;;5089512;28;19924;-70